sensor_id;sensor_type;location;lat;lon;timestamp;temperature;humidity
3492;DHT22;1760;52.480;13.422;2023-01-29T00:01:57;1.30;99.90
3492;DHT22;1760;52.480;13.422;2023-01-29T00:04:26;1.20;99.90
3492;DHT22;1760;52.480;13.422;2023-01-29T00:06:52;1.20;99.90
3492;DHT22;1760;52.480;13.422;2023-01-29T00:09:19;1.20;99.90
3492;DHT22;1760;52.480;13.422;2023-01-29T00:11:46;1.20;99.90
3492;DHT22;1760;52.480;13.422;2023-01-29T00:14:13;1.30;99.90
3492;DHT22;1760;52.480;13.422;2023-01-29T00:16:40;1.30;99.90
3492;DHT22;1760;52.480;13.422;2023-01-29T00:19:07;1.20;99.90
3492;DHT22;1760;52.480;13.422;2023-01-29T00:21:35;1.20;99.90
3492;DHT22;1760;52.480;13.422;2023-01-29T00:24:02;1.30;99.90
3492;DHT22;1760;52.480;13.422;2023-01-29T00:26:29;1.20;99.90
3492;DHT22;1760;52.480;13.422;2023-01-29T00:28:56;1.20;99.90
3492;DHT22;1760;52.480;13.422;2023-01-29T00:31:25;1.20;99.90
3492;DHT22;1760;52.480;13.422;2023-01-29T00:33:55;1.20;99.90
3492;DHT22;1760;52.480;13.422;2023-01-29T00:36:24;1.20;99.90
3492;DHT22;1760;52.480;13.422;2023-01-29T00:38:58;1.20;99.90
3492;DHT22;1760;52.480;13.422;2023-01-29T00:41:29;1.20;99.90
3492;DHT22;1760;52.480;13.422;2023-01-29T00:44:14;1.20;99.90
3492;DHT22;1760;52.480;13.422;2023-01-29T00:47:01;1.20;99.90
3492;DHT22;1760;52.480;13.422;2023-01-29T00:49:28;1.20;99.90
3492;DHT22;1760;52.480;13.422;2023-01-29T00:51:55;1.20;99.90
3492;DHT22;1760;52.480;13.422;2023-01-29T00:54:40;1.20;99.90
3492;DHT22;1760;52.480;13.422;2023-01-29T00:57:07;1.30;99.90
3492;DHT22;1760;52.480;13.422;2023-01-29T00:59:34;1.30;99.90
3492;DHT22;1760;52.480;13.422;2023-01-29T01:02:01;1.30;99.90
3492;DHT22;1760;52.480;13.422;2023-01-29T01:04:45;1.30;99.90
3492;DHT22;1760;52.480;13.422;2023-01-29T01:07:14;1.30;99.90
3492;DHT22;1760;52.480;13.422;2023-01-29T01:09:44;1.30;99.90
3492;DHT22;1760;52.480;13.422;2023-01-29T01:12:31;1.30;99.90
3492;DHT22;1760;52.480;13.422;2023-01-29T01:14:58;1.30;99.90
3492;DHT22;1760;52.480;13.422;2023-01-29T01:17:24;1.30;99.90
3492;DHT22;1760;52.480;13.422;2023-01-29T01:19:51;1.40;99.90
3492;DHT22;1760;52.480;13.422;2023-01-29T01:22:18;1.40;99.90
3492;DHT22;1760;52.480;13.422;2023-01-29T01:24:46;1.40;99.90
3492;DHT22;1760;52.480;13.422;2023-01-29T01:27:13;1.40;99.90
3492;DHT22;1760;52.480;13.422;2023-01-29T01:29:41;1.40;99.90
3492;DHT22;1760;52.480;13.422;2023-01-29T01:32:07;1.50;99.90
3492;DHT22;1760;52.480;13.422;2023-01-29T01:34:34;1.50;99.90
3492;DHT22;1760;52.480;13.422;2023-01-29T01:37:07;1.50;99.90
3492;DHT22;1760;52.480;13.422;2023-01-29T01:39:35;1.50;99.90
3492;DHT22;1760;52.480;13.422;2023-01-29T01:42:08;1.50;99.90
3492;DHT22;1760;52.480;13.422;2023-01-29T01:44:55;1.50;99.90
3492;DHT22;1760;52.480;13.422;2023-01-29T01:47:30;1.60;99.90
3492;DHT22;1760;52.480;13.422;2023-01-29T01:50:05;1.60;99.90
3492;DHT22;1760;52.480;13.422;2023-01-29T01:52:36;1.60;99.90
3492;DHT22;1760;52.480;13.422;2023-01-29T01:55:04;1.60;99.90
3492;DHT22;1760;52.480;13.422;2023-01-29T01:57:33;1.60;99.90
3492;DHT22;1760;52.480;13.422;2023-01-29T02:00:09;1.60;99.90
3492;DHT22;1760;52.480;13.422;2023-01-29T02:02:38;1.60;99.90
3492;DHT22;1760;52.480;13.422;2023-01-29T02:05:25;1.60;99.90
3492;DHT22;1760;52.480;13.422;2023-01-29T02:08:10;1.60;99.90
3492;DHT22;1760;52.480;13.422;2023-01-29T02:10:54;1.60;99.90
3492;DHT22;1760;52.480;13.422;2023-01-29T02:13:23;1.60;99.90
3492;DHT22;1760;52.480;13.422;2023-01-29T02:15:50;1.60;99.90
3492;DHT22;1760;52.480;13.422;2023-01-29T02:18:20;1.60;99.90
3492;DHT22;1760;52.480;13.422;2023-01-29T02:21:04;1.60;99.90
3492;DHT22;1760;52.480;13.422;2023-01-29T02:27:04;1.60;99.90
3492;DHT22;1760;52.480;13.422;2023-01-29T02:29:42;1.60;99.90
3492;DHT22;1760;52.480;13.422;2023-01-29T02:32:22;1.60;99.90
3492;DHT22;1760;52.480;13.422;2023-01-29T02:35:05;1.60;99.90
3492;DHT22;1760;52.480;13.422;2023-01-29T02:38:00;1.60;99.90
3492;DHT22;1760;52.480;13.422;2023-01-29T02:40:30;1.70;99.90
3492;DHT22;1760;52.480;13.422;2023-01-29T02:43:06;1.60;99.90
3492;DHT22;1760;52.480;13.422;2023-01-29T02:45:42;1.50;99.90
3492;DHT22;1760;52.480;13.422;2023-01-29T02:48:16;1.50;99.90
3492;DHT22;1760;52.480;13.422;2023-01-29T02:50:46;1.60;99.90
3492;DHT22;1760;52.480;13.422;2023-01-29T02:53:17;1.50;99.90
3492;DHT22;1760;52.480;13.422;2023-01-29T02:55:50;1.50;99.90
3492;DHT22;1760;52.480;13.422;2023-01-29T02:58:29;1.60;99.90
3492;DHT22;1760;52.480;13.422;2023-01-29T03:01:00;1.50;99.90
3492;DHT22;1760;52.480;13.422;2023-01-29T03:03:33;1.50;99.90
3492;DHT22;1760;52.480;13.422;2023-01-29T03:06:04;1.50;99.90
3492;DHT22;1760;52.480;13.422;2023-01-29T03:08:35;1.50;99.90
3492;DHT22;1760;52.480;13.422;2023-01-29T03:11:11;1.60;99.90
3492;DHT22;1760;52.480;13.422;2023-01-29T03:13:43;1.60;99.90
3492;DHT22;1760;52.480;13.422;2023-01-29T03:16:18;1.60;99.90
3492;DHT22;1760;52.480;13.422;2023-01-29T03:18:50;1.60;99.90
3492;DHT22;1760;52.480;13.422;2023-01-29T03:21:21;1.50;99.90
3492;DHT22;1760;52.480;13.422;2023-01-29T03:24:10;1.50;99.90
3492;DHT22;1760;52.480;13.422;2023-01-29T03:26:57;1.50;99.90
3492;DHT22;1760;52.480;13.422;2023-01-29T03:29:45;1.50;99.90
3492;DHT22;1760;52.480;13.422;2023-01-29T03:32:31;1.50;99.90
3492;DHT22;1760;52.480;13.422;2023-01-29T03:35:02;1.50;99.90
3492;DHT22;1760;52.480;13.422;2023-01-29T03:37:34;1.50;99.90
3492;DHT22;1760;52.480;13.422;2023-01-29T03:40:03;1.50;99.90
3492;DHT22;1760;52.480;13.422;2023-01-29T03:42:40;1.60;99.90
3492;DHT22;1760;52.480;13.422;2023-01-29T03:45:15;1.60;99.90
3492;DHT22;1760;52.480;13.422;2023-01-29T03:47:48;1.60;99.90
3492;DHT22;1760;52.480;13.422;2023-01-29T03:50:28;1.60;99.90
3492;DHT22;1760;52.480;13.422;2023-01-29T03:53:03;1.60;99.90
3492;DHT22;1760;52.480;13.422;2023-01-29T03:55:37;1.60;99.90
3492;DHT22;1760;52.480;13.422;2023-01-29T03:58:15;1.60;99.90
3492;DHT22;1760;52.480;13.422;2023-01-29T04:00:52;1.50;99.90
3492;DHT22;1760;52.480;13.422;2023-01-29T04:03:25;1.50;99.90
3492;DHT22;1760;52.480;13.422;2023-01-29T04:05:58;1.60;99.90
3492;DHT22;1760;52.480;13.422;2023-01-29T04:08:38;1.60;99.90
3492;DHT22;1760;52.480;13.422;2023-01-29T04:11:10;1.60;99.90
3492;DHT22;1760;52.480;13.422;2023-01-29T04:13:38;1.50;99.90
3492;DHT22;1760;52.480;13.422;2023-01-29T04:16:08;1.50;99.90
3492;DHT22;1760;52.480;13.422;2023-01-29T04:18:38;1.50;99.90
3492;DHT22;1760;52.480;13.422;2023-01-29T04:21:06;1.50;99.90
3492;DHT22;1760;52.480;13.422;2023-01-29T04:23:33;1.50;99.90
3492;DHT22;1760;52.480;13.422;2023-01-29T04:26:30;1.50;99.90
3492;DHT22;1760;52.480;13.422;2023-01-29T04:29:13;1.60;99.90
3492;DHT22;1760;52.480;13.422;2023-01-29T04:31:46;1.60;99.90
3492;DHT22;1760;52.480;13.422;2023-01-29T04:34:23;1.60;99.90
3492;DHT22;1760;52.480;13.422;2023-01-29T04:37:03;1.60;99.90
3492;DHT22;1760;52.480;13.422;2023-01-29T04:39:41;1.60;99.90
3492;DHT22;1760;52.480;13.422;2023-01-29T04:42:14;1.60;99.90
3492;DHT22;1760;52.480;13.422;2023-01-29T04:44:49;1.60;99.90
3492;DHT22;1760;52.480;13.422;2023-01-29T04:47:27;1.50;99.90
3492;DHT22;1760;52.480;13.422;2023-01-29T04:50:04;1.50;99.90
3492;DHT22;1760;52.480;13.422;2023-01-29T04:52:43;1.40;99.90
3492;DHT22;1760;52.480;13.422;2023-01-29T04:55:16;1.40;99.90
3492;DHT22;1760;52.480;13.422;2023-01-29T04:57:49;1.50;99.90
3492;DHT22;1760;52.480;13.422;2023-01-29T05:00:25;1.50;99.90
3492;DHT22;1760;52.480;13.422;2023-01-29T05:02:53;1.50;99.90
3492;DHT22;1760;52.480;13.422;2023-01-29T05:05:23;1.50;99.90
3492;DHT22;1760;52.480;13.422;2023-01-29T05:07:52;1.50;99.90
3492;DHT22;1760;52.480;13.422;2023-01-29T05:10:20;1.60;99.90
3492;DHT22;1760;52.480;13.422;2023-01-29T05:12:51;1.60;99.90
3492;DHT22;1760;52.480;13.422;2023-01-29T05:15:24;1.60;99.90
3492;DHT22;1760;52.480;13.422;2023-01-29T05:17:52;1.70;99.90
3492;DHT22;1760;52.480;13.422;2023-01-29T05:20:29;1.70;99.90
3492;DHT22;1760;52.480;13.422;2023-01-29T05:22:57;1.70;99.90
3492;DHT22;1760;52.480;13.422;2023-01-29T05:25:28;1.70;99.90
3492;DHT22;1760;52.480;13.422;2023-01-29T05:27:58;1.70;99.90
3492;DHT22;1760;52.480;13.422;2023-01-29T05:30:31;1.70;99.90
3492;DHT22;1760;52.480;13.422;2023-01-29T05:33:01;1.70;99.90
3492;DHT22;1760;52.480;13.422;2023-01-29T05:35:30;1.70;99.90
3492;DHT22;1760;52.480;13.422;2023-01-29T05:37:57;1.60;99.90
3492;DHT22;1760;52.480;13.422;2023-01-29T05:40:24;1.60;99.90
3492;DHT22;1760;52.480;13.422;2023-01-29T05:42:51;1.50;99.90
3492;DHT22;1760;52.480;13.422;2023-01-29T05:45:18;1.60;99.90
3492;DHT22;1760;52.480;13.422;2023-01-29T05:47:45;1.60;99.90
3492;DHT22;1760;52.480;13.422;2023-01-29T05:50:13;1.60;99.90
3492;DHT22;1760;52.480;13.422;2023-01-29T05:52:42;1.50;99.90
3492;DHT22;1760;52.480;13.422;2023-01-29T05:55:09;1.60;99.90
3492;DHT22;1760;52.480;13.422;2023-01-29T05:57:38;1.60;99.90
3492;DHT22;1760;52.480;13.422;2023-01-29T06:00:06;1.60;99.90
3492;DHT22;1760;52.480;13.422;2023-01-29T06:02:34;1.60;99.90
3492;DHT22;1760;52.480;13.422;2023-01-29T06:05:01;1.60;99.90
3492;DHT22;1760;52.480;13.422;2023-01-29T06:07:28;1.60;99.90
3492;DHT22;1760;52.480;13.422;2023-01-29T06:09:56;1.60;99.90
3492;DHT22;1760;52.480;13.422;2023-01-29T06:12:23;1.70;99.90
3492;DHT22;1760;52.480;13.422;2023-01-29T06:14:50;1.70;99.90
3492;DHT22;1760;52.480;13.422;2023-01-29T06:17:17;1.70;99.90
3492;DHT22;1760;52.480;13.422;2023-01-29T06:19:44;1.70;99.90
3492;DHT22;1760;52.480;13.422;2023-01-29T06:22:11;2.00;99.90
3492;DHT22;1760;52.480;13.422;2023-01-29T06:24:37;1.70;99.90
3492;DHT22;1760;52.480;13.422;2023-01-29T06:27:06;1.80;99.90
3492;DHT22;1760;52.480;13.422;2023-01-29T06:29:32;1.90;99.90
3492;DHT22;1760;52.480;13.422;2023-01-29T06:31:59;1.90;99.90
3492;DHT22;1760;52.480;13.422;2023-01-29T06:34:26;1.90;99.90
3492;DHT22;1760;52.480;13.422;2023-01-29T06:36:53;1.90;99.90
3492;DHT22;1760;52.480;13.422;2023-01-29T06:39:20;1.90;99.90
3492;DHT22;1760;52.480;13.422;2023-01-29T06:41:47;1.90;99.90
3492;DHT22;1760;52.480;13.422;2023-01-29T06:44:15;2.00;99.90
3492;DHT22;1760;52.480;13.422;2023-01-29T06:46:42;1.90;99.90
3492;DHT22;1760;52.480;13.422;2023-01-29T06:49:09;1.90;99.90
3492;DHT22;1760;52.480;13.422;2023-01-29T06:51:37;1.90;99.90
3492;DHT22;1760;52.480;13.422;2023-01-29T06:54:04;1.90;99.90
3492;DHT22;1760;52.480;13.422;2023-01-29T06:56:33;2.00;99.90
3492;DHT22;1760;52.480;13.422;2023-01-29T06:58:59;2.00;99.90
3492;DHT22;1760;52.480;13.422;2023-01-29T07:01:28;1.90;99.90
3492;DHT22;1760;52.480;13.422;2023-01-29T07:03:55;2.00;99.90
3492;DHT22;1760;52.480;13.422;2023-01-29T07:06:26;2.00;99.90
3492;DHT22;1760;52.480;13.422;2023-01-29T07:08:53;2.00;99.90
3492;DHT22;1760;52.480;13.422;2023-01-29T07:11:20;2.00;99.90
3492;DHT22;1760;52.480;13.422;2023-01-29T07:13:50;2.00;99.90
3492;DHT22;1760;52.480;13.422;2023-01-29T07:16:18;2.00;99.90
3492;DHT22;1760;52.480;13.422;2023-01-29T07:18:47;2.00;99.90
3492;DHT22;1760;52.480;13.422;2023-01-29T07:21:13;2.00;99.90
3492;DHT22;1760;52.480;13.422;2023-01-29T07:23:40;2.00;99.90
3492;DHT22;1760;52.480;13.422;2023-01-29T07:26:07;2.00;99.90
3492;DHT22;1760;52.480;13.422;2023-01-29T07:28:35;2.00;99.90
3492;DHT22;1760;52.480;13.422;2023-01-29T07:31:03;2.10;99.90
3492;DHT22;1760;52.480;13.422;2023-01-29T07:33:31;2.10;99.90
3492;DHT22;1760;52.480;13.422;2023-01-29T07:35:59;2.10;99.90
3492;DHT22;1760;52.480;13.422;2023-01-29T07:38:26;2.10;99.90
3492;DHT22;1760;52.480;13.422;2023-01-29T07:40:53;2.00;99.90
3492;DHT22;1760;52.480;13.422;2023-01-29T07:43:20;2.10;99.90
3492;DHT22;1760;52.480;13.422;2023-01-29T07:45:49;2.10;99.90
3492;DHT22;1760;52.480;13.422;2023-01-29T07:48:16;2.00;99.90
3492;DHT22;1760;52.480;13.422;2023-01-29T07:50:43;2.00;99.90
3492;DHT22;1760;52.480;13.422;2023-01-29T07:53:13;2.00;99.90
3492;DHT22;1760;52.480;13.422;2023-01-29T07:55:42;2.00;99.90
3492;DHT22;1760;52.480;13.422;2023-01-29T07:58:09;2.00;99.90
3492;DHT22;1760;52.480;13.422;2023-01-29T08:00:36;2.00;99.90
3492;DHT22;1760;52.480;13.422;2023-01-29T08:03:05;2.00;99.90
3492;DHT22;1760;52.480;13.422;2023-01-29T08:05:32;2.00;99.90
3492;DHT22;1760;52.480;13.422;2023-01-29T08:07:59;2.00;99.90
3492;DHT22;1760;52.480;13.422;2023-01-29T08:10:28;2.00;99.90
3492;DHT22;1760;52.480;13.422;2023-01-29T08:12:55;2.00;99.90
3492;DHT22;1760;52.480;13.422;2023-01-29T08:15:23;1.90;99.90
3492;DHT22;1760;52.480;13.422;2023-01-29T08:17:50;2.00;99.90
3492;DHT22;1760;52.480;13.422;2023-01-29T08:20:17;2.00;99.90
3492;DHT22;1760;52.480;13.422;2023-01-29T08:22:45;2.00;99.90
3492;DHT22;1760;52.480;13.422;2023-01-29T08:25:12;2.00;99.90
3492;DHT22;1760;52.480;13.422;2023-01-29T08:27:41;2.00;99.90
3492;DHT22;1760;52.480;13.422;2023-01-29T08:30:10;2.10;99.90
3492;DHT22;1760;52.480;13.422;2023-01-29T08:32:37;2.10;99.90
3492;DHT22;1760;52.480;13.422;2023-01-29T08:35:04;2.20;99.90
3492;DHT22;1760;52.480;13.422;2023-01-29T08:37:31;2.20;99.90
3492;DHT22;1760;52.480;13.422;2023-01-29T08:39:58;2.20;99.90
3492;DHT22;1760;52.480;13.422;2023-01-29T08:42:25;2.20;99.90
3492;DHT22;1760;52.480;13.422;2023-01-29T08:44:53;2.20;99.90
3492;DHT22;1760;52.480;13.422;2023-01-29T08:47:20;2.30;99.90
3492;DHT22;1760;52.480;13.422;2023-01-29T08:49:47;2.30;99.90
3492;DHT22;1760;52.480;13.422;2023-01-29T08:52:14;2.30;99.90
3492;DHT22;1760;52.480;13.422;2023-01-29T08:54:41;2.30;99.90
3492;DHT22;1760;52.480;13.422;2023-01-29T08:57:08;2.40;99.90
3492;DHT22;1760;52.480;13.422;2023-01-29T08:59:34;2.30;99.90
3492;DHT22;1760;52.480;13.422;2023-01-29T09:02:04;2.30;99.90
3492;DHT22;1760;52.480;13.422;2023-01-29T09:04:31;2.40;99.90
3492;DHT22;1760;52.480;13.422;2023-01-29T09:06:57;2.40;99.90
3492;DHT22;1760;52.480;13.422;2023-01-29T09:09:24;2.30;99.90
3492;DHT22;1760;52.480;13.422;2023-01-29T09:11:51;2.30;99.90
3492;DHT22;1760;52.480;13.422;2023-01-29T09:14:18;2.30;99.90
3492;DHT22;1760;52.480;13.422;2023-01-29T09:16:45;2.30;99.90
3492;DHT22;1760;52.480;13.422;2023-01-29T09:19:13;2.30;99.90
3492;DHT22;1760;52.480;13.422;2023-01-29T09:21:40;2.30;99.90
3492;DHT22;1760;52.480;13.422;2023-01-29T09:24:07;2.30;99.90
3492;DHT22;1760;52.480;13.422;2023-01-29T09:26:35;2.30;99.90
3492;DHT22;1760;52.480;13.422;2023-01-29T09:29:04;2.40;99.90
3492;DHT22;1760;52.480;13.422;2023-01-29T09:31:31;2.40;99.90
3492;DHT22;1760;52.480;13.422;2023-01-29T09:33:59;2.50;99.90
3492;DHT22;1760;52.480;13.422;2023-01-29T09:36:27;2.60;99.90
3492;DHT22;1760;52.480;13.422;2023-01-29T09:38:54;2.60;99.90
3492;DHT22;1760;52.480;13.422;2023-01-29T09:41:33;2.60;99.90
3492;DHT22;1760;52.480;13.422;2023-01-29T09:44:10;2.60;99.90
3492;DHT22;1760;52.480;13.422;2023-01-29T09:46:41;2.70;99.90
3492;DHT22;1760;52.480;13.422;2023-01-29T09:49:11;2.70;99.90
3492;DHT22;1760;52.480;13.422;2023-01-29T09:51:45;2.70;99.90
3492;DHT22;1760;52.480;13.422;2023-01-29T09:54:20;2.80;99.90
3492;DHT22;1760;52.480;13.422;2023-01-29T09:56:49;2.80;99.90
3492;DHT22;1760;52.480;13.422;2023-01-29T09:59:20;2.80;99.90
3492;DHT22;1760;52.480;13.422;2023-01-29T10:01:54;2.90;99.90
3492;DHT22;1760;52.480;13.422;2023-01-29T10:04:56;2.90;99.90
3492;DHT22;1760;52.480;13.422;2023-01-29T10:10:38;2.90;99.90
3492;DHT22;1760;52.480;13.422;2023-01-29T10:13:15;3.00;99.90
3492;DHT22;1760;52.480;13.422;2023-01-29T10:15:53;3.10;99.90
3492;DHT22;1760;52.480;13.422;2023-01-29T10:18:45;3.20;99.90
3492;DHT22;1760;52.480;13.422;2023-01-29T10:21:31;3.30;99.90
3492;DHT22;1760;52.480;13.422;2023-01-29T10:24:10;3.40;99.90
3492;DHT22;1760;52.480;13.422;2023-01-29T10:26:41;3.40;99.90
3492;DHT22;1760;52.480;13.422;2023-01-29T10:29:14;3.50;99.90
3492;DHT22;1760;52.480;13.422;2023-01-29T10:31:43;3.70;99.90
3492;DHT22;1760;52.480;13.422;2023-01-29T10:34:15;3.80;99.90
3492;DHT22;1760;52.480;13.422;2023-01-29T10:36:46;3.80;99.90
3492;DHT22;1760;52.480;13.422;2023-01-29T10:39:15;3.80;99.90
3492;DHT22;1760;52.480;13.422;2023-01-29T10:42:08;3.90;99.90
3492;DHT22;1760;52.480;13.422;2023-01-29T10:44:52;3.80;99.90
3492;DHT22;1760;52.480;13.422;2023-01-29T10:47:49;3.90;99.90
3492;DHT22;1760;52.480;13.422;2023-01-29T10:50:37;4.00;99.90
3492;DHT22;1760;52.480;13.422;2023-01-29T10:53:20;4.00;99.90
3492;DHT22;1760;52.480;13.422;2023-01-29T10:55:57;4.00;99.90
3492;DHT22;1760;52.480;13.422;2023-01-29T10:58:31;4.00;99.90
3492;DHT22;1760;52.480;13.422;2023-01-29T11:01:00;4.00;99.90
3492;DHT22;1760;52.480;13.422;2023-01-29T11:03:28;4.00;99.90
3492;DHT22;1760;52.480;13.422;2023-01-29T11:06:00;4.00;99.90
3492;DHT22;1760;52.480;13.422;2023-01-29T11:08:32;4.00;99.90
3492;DHT22;1760;52.480;13.422;2023-01-29T11:11:06;4.10;99.90
3492;DHT22;1760;52.480;13.422;2023-01-29T11:13:39;4.20;99.90
3492;DHT22;1760;52.480;13.422;2023-01-29T11:16:08;4.20;99.90
3492;DHT22;1760;52.480;13.422;2023-01-29T11:18:57;4.20;99.90
3492;DHT22;1760;52.480;13.422;2023-01-29T11:21:26;4.20;99.90
3492;DHT22;1760;52.480;13.422;2023-01-29T11:24:08;4.20;99.90
3492;DHT22;1760;52.480;13.422;2023-01-29T11:26:39;4.20;99.90
3492;DHT22;1760;52.480;13.422;2023-01-29T11:29:29;4.20;99.90
3492;DHT22;1760;52.480;13.422;2023-01-29T11:31:58;4.20;99.90
3492;DHT22;1760;52.480;13.422;2023-01-29T11:34:26;4.20;99.90
3492;DHT22;1760;52.480;13.422;2023-01-29T11:36:56;4.20;99.90
3492;DHT22;1760;52.480;13.422;2023-01-29T11:39:24;4.20;99.90
3492;DHT22;1760;52.480;13.422;2023-01-29T11:41:55;4.20;99.90
3492;DHT22;1760;52.480;13.422;2023-01-29T11:44:29;4.20;99.90
3492;DHT22;1760;52.480;13.422;2023-01-29T11:47:10;4.20;99.90
3492;DHT22;1760;52.480;13.422;2023-01-29T11:49:38;4.20;99.90
3492;DHT22;1760;52.480;13.422;2023-01-29T11:52:08;4.20;99.90
3492;DHT22;1760;52.480;13.422;2023-01-29T11:54:38;4.20;99.90
3492;DHT22;1760;52.480;13.422;2023-01-29T11:57:20;4.30;99.90
3492;DHT22;1760;52.480;13.422;2023-01-29T11:59:51;4.30;99.90
3492;DHT22;1760;52.480;13.422;2023-01-29T12:02:24;4.40;99.90
3492;DHT22;1760;52.480;13.422;2023-01-29T12:04:53;4.40;99.90
3492;DHT22;1760;52.480;13.422;2023-01-29T12:07:21;4.50;99.90
3492;DHT22;1760;52.480;13.422;2023-01-29T12:09:51;4.50;99.90
3492;DHT22;1760;52.480;13.422;2023-01-29T12:12:34;4.40;99.90
3492;DHT22;1760;52.480;13.422;2023-01-29T12:15:15;4.40;99.90
3492;DHT22;1760;52.480;13.422;2023-01-29T12:17:52;4.40;99.90
3492;DHT22;1760;52.480;13.422;2023-01-29T12:20:22;4.40;99.90
3492;DHT22;1760;52.480;13.422;2023-01-29T12:22:56;4.40;99.90
3492;DHT22;1760;52.480;13.422;2023-01-29T12:25:36;4.50;99.90
3492;DHT22;1760;52.480;13.422;2023-01-29T12:28:09;4.60;99.90
3492;DHT22;1760;52.480;13.422;2023-01-29T12:30:47;4.60;99.90
3492;DHT22;1760;52.480;13.422;2023-01-29T12:33:23;4.70;99.90
3492;DHT22;1760;52.480;13.422;2023-01-29T12:35:57;4.80;99.90
3492;DHT22;1760;52.480;13.422;2023-01-29T12:38:27;4.60;99.90
3492;DHT22;1760;52.480;13.422;2023-01-29T12:40:57;4.60;99.90
3492;DHT22;1760;52.480;13.422;2023-01-29T12:43:28;4.60;99.90
3492;DHT22;1760;52.480;13.422;2023-01-29T12:45:59;4.60;99.90
3492;DHT22;1760;52.480;13.422;2023-01-29T12:48:30;4.60;99.90
3492;DHT22;1760;52.480;13.422;2023-01-29T12:51:04;4.60;99.90
3492;DHT22;1760;52.480;13.422;2023-01-29T12:53:34;4.60;99.90
3492;DHT22;1760;52.480;13.422;2023-01-29T12:56:06;4.50;99.90
3492;DHT22;1760;52.480;13.422;2023-01-29T12:58:38;4.40;99.90
3492;DHT22;1760;52.480;13.422;2023-01-29T13:01:13;4.30;99.90
3492;DHT22;1760;52.480;13.422;2023-01-29T13:03:48;4.20;99.90
3492;DHT22;1760;52.480;13.422;2023-01-29T13:06:19;4.20;99.90
3492;DHT22;1760;52.480;13.422;2023-01-29T13:08:50;4.20;99.90
3492;DHT22;1760;52.480;13.422;2023-01-29T13:11:23;4.20;99.90
3492;DHT22;1760;52.480;13.422;2023-01-29T13:13:54;4.20;99.90
3492;DHT22;1760;52.480;13.422;2023-01-29T13:16:26;4.30;99.90
3492;DHT22;1760;52.480;13.422;2023-01-29T13:18:55;4.30;99.90
3492;DHT22;1760;52.480;13.422;2023-01-29T13:21:25;4.40;99.90
3492;DHT22;1760;52.480;13.422;2023-01-29T13:23:56;4.40;99.90
3492;DHT22;1760;52.480;13.422;2023-01-29T13:26:23;4.30;99.90
3492;DHT22;1760;52.480;13.422;2023-01-29T13:28:51;4.30;99.90
3492;DHT22;1760;52.480;13.422;2023-01-29T13:31:31;4.30;99.90
3492;DHT22;1760;52.480;13.422;2023-01-29T13:34:06;4.40;99.90
3492;DHT22;1760;52.480;13.422;2023-01-29T13:36:36;4.40;99.90
3492;DHT22;1760;52.480;13.422;2023-01-29T13:39:16;4.30;99.90
3492;DHT22;1760;52.480;13.422;2023-01-29T13:41:45;4.30;99.90
3492;DHT22;1760;52.480;13.422;2023-01-29T13:44:20;4.20;99.90
3492;DHT22;1760;52.480;13.422;2023-01-29T13:46:53;4.20;99.90
3492;DHT22;1760;52.480;13.422;2023-01-29T13:49:34;4.10;99.90
3492;DHT22;1760;52.480;13.422;2023-01-29T13:52:20;4.20;99.90
3492;DHT22;1760;52.480;13.422;2023-01-29T13:54:51;4.10;99.90
3492;DHT22;1760;52.480;13.422;2023-01-29T14:03:54;4.20;99.90
3492;DHT22;1760;52.480;13.422;2023-01-29T14:06:49;4.20;99.90
3492;DHT22;1760;52.480;13.422;2023-01-29T14:12:42;4.20;99.90
3492;DHT22;1760;52.480;13.422;2023-01-29T14:15:24;4.10;99.90
3492;DHT22;1760;52.480;13.422;2023-01-29T14:18:17;4.00;99.90
3492;DHT22;1760;52.480;13.422;2023-01-29T14:20:58;3.90;99.90
3492;DHT22;1760;52.480;13.422;2023-01-29T14:23:33;3.80;99.90
3492;DHT22;1760;52.480;13.422;2023-01-29T14:26:03;3.80;99.90
3492;DHT22;1760;52.480;13.422;2023-01-29T14:28:32;3.80;99.90
3492;DHT22;1760;52.480;13.422;2023-01-29T14:31:00;3.80;99.90
3492;DHT22;1760;52.480;13.422;2023-01-29T14:33:34;3.80;99.90
3492;DHT22;1760;52.480;13.422;2023-01-29T14:36:11;3.80;99.90
3492;DHT22;1760;52.480;13.422;2023-01-29T14:38:39;3.80;99.90
3492;DHT22;1760;52.480;13.422;2023-01-29T14:41:15;3.80;99.90
3492;DHT22;1760;52.480;13.422;2023-01-29T14:43:44;3.80;99.90
3492;DHT22;1760;52.480;13.422;2023-01-29T14:46:42;3.70;99.90
3492;DHT22;1760;52.480;13.422;2023-01-29T14:49:10;3.70;99.90
3492;DHT22;1760;52.480;13.422;2023-01-29T14:51:41;3.60;99.90
3492;DHT22;1760;52.480;13.422;2023-01-29T14:54:21;3.60;99.90
3492;DHT22;1760;52.480;13.422;2023-01-29T14:56:56;3.60;99.90
3492;DHT22;1760;52.480;13.422;2023-01-29T14:59:29;3.50;99.90
3492;DHT22;1760;52.480;13.422;2023-01-29T15:01:59;3.60;99.90
3492;DHT22;1760;52.480;13.422;2023-01-29T15:04:29;3.60;99.90
3492;DHT22;1760;52.480;13.422;2023-01-29T15:07:02;3.50;99.90
3492;DHT22;1760;52.480;13.422;2023-01-29T15:09:36;3.50;99.90
3492;DHT22;1760;52.480;13.422;2023-01-29T15:12:13;3.50;99.90
3492;DHT22;1760;52.480;13.422;2023-01-29T15:14:48;3.50;99.90
3492;DHT22;1760;52.480;13.422;2023-01-29T15:17:22;3.50;99.90
3492;DHT22;1760;52.480;13.422;2023-01-29T15:19:51;3.50;99.90
3492;DHT22;1760;52.480;13.422;2023-01-29T15:22:20;3.40;99.90
3492;DHT22;1760;52.480;13.422;2023-01-29T15:25:03;3.40;99.90
3492;DHT22;1760;52.480;13.422;2023-01-29T15:27:31;3.40;99.90
3492;DHT22;1760;52.480;13.422;2023-01-29T15:30:00;3.30;99.90
3492;DHT22;1760;52.480;13.422;2023-01-29T15:32:31;3.30;99.90
3492;DHT22;1760;52.480;13.422;2023-01-29T15:34:59;3.30;99.90
3492;DHT22;1760;52.480;13.422;2023-01-29T15:37:31;3.30;99.90
3492;DHT22;1760;52.480;13.422;2023-01-29T15:40:02;3.20;99.90
3492;DHT22;1760;52.480;13.422;2023-01-29T15:42:42;3.20;99.90
3492;DHT22;1760;52.480;13.422;2023-01-29T15:45:23;3.20;99.90
3492;DHT22;1760;52.480;13.422;2023-01-29T15:47:53;3.10;99.90
3492;DHT22;1760;52.480;13.422;2023-01-29T15:50:21;3.20;99.90
3492;DHT22;1760;52.480;13.422;2023-01-29T15:52:52;3.10;99.90
3492;DHT22;1760;52.480;13.422;2023-01-29T15:55:21;3.10;99.90
3492;DHT22;1760;52.480;13.422;2023-01-29T15:57:49;3.10;99.90
3492;DHT22;1760;52.480;13.422;2023-01-29T16:00:22;3.20;99.90
3492;DHT22;1760;52.480;13.422;2023-01-29T16:02:52;3.20;99.90
3492;DHT22;1760;52.480;13.422;2023-01-29T16:05:21;3.20;99.90
3492;DHT22;1760;52.480;13.422;2023-01-29T16:07:51;3.10;99.90
3492;DHT22;1760;52.480;13.422;2023-01-29T16:10:21;3.10;99.90
3492;DHT22;1760;52.480;13.422;2023-01-29T16:12:49;3.10;99.90
3492;DHT22;1760;52.480;13.422;2023-01-29T16:15:29;3.10;99.90
3492;DHT22;1760;52.480;13.422;2023-01-29T16:17:57;3.10;99.90
3492;DHT22;1760;52.480;13.422;2023-01-29T16:20:36;3.10;99.90
3492;DHT22;1760;52.480;13.422;2023-01-29T16:23:15;3.10;99.90
3492;DHT22;1760;52.480;13.422;2023-01-29T16:25:42;3.20;99.90
3492;DHT22;1760;52.480;13.422;2023-01-29T16:28:09;3.20;99.90
3492;DHT22;1760;52.480;13.422;2023-01-29T16:30:37;3.20;99.90
3492;DHT22;1760;52.480;13.422;2023-01-29T16:33:11;3.20;99.90
3492;DHT22;1760;52.480;13.422;2023-01-29T16:35:39;3.20;99.90
3492;DHT22;1760;52.480;13.422;2023-01-29T16:38:20;3.20;99.90
3492;DHT22;1760;52.480;13.422;2023-01-29T16:41:05;3.20;99.90
3492;DHT22;1760;52.480;13.422;2023-01-29T16:43:57;3.20;99.90
3492;DHT22;1760;52.480;13.422;2023-01-29T16:46:34;3.30;99.90
3492;DHT22;1760;52.480;13.422;2023-01-29T16:49:41;3.30;99.90
3492;DHT22;1760;52.480;13.422;2023-01-29T16:52:18;3.30;99.90